Time;durP1;ratioP1;P1;durP2;ratioP2;P2;SDS_P1;SDS_P2;PMS_P1;PMS_P2;Temp;Humidity;BMP_temperature;BMP_pressure;BME280_temperature;BME280_humidity;BME280_pressure;Samples;Min_cycle;Max_cycle;Signal;HPM_P1;HPM_P2
2023/08/23 00:00:30;;;;;;;8.57;3.05;;;15.20;99.90;;;;;;6073020;23;20171;-87
2023/08/23 00:02:58;;;;;;;8.80;3.42;;;15.20;99.90;;;;;;6097159;23;20222;-86
2023/08/23 00:05:25;;;;;;;7.05;3.65;;;15.20;99.90;;;;;;6097083;23;20167;-86
2023/08/23 00:07:53;;;;;;;6.68;3.50;;;14.90;99.90;;;;;;6122928;23;20611;-86
2023/08/23 00:10:20;;;;;;;8.98;4.00;;;14.90;99.90;;;;;;6097688;23;20166;-85
2023/08/23 00:12:51;;;;;;;9.18;4.10;;;14.90;99.90;;;;;;6097239;23;20182;-86
2023/08/23 00:15:18;;;;;;;13.15;3.90;;;15.00;99.90;;;;;;6122763;23;20227;-87
2023/08/23 00:17:46;;;;;;;11.63;3.88;;;15.10;99.90;;;;;;6122901;23;20159;-87
2023/08/23 00:20:14;;;;;;;12.65;3.85;;;14.90;99.90;;;;;;6122726;23;20275;-85
2023/08/23 00:22:41;;;;;;;11.30;4.82;;;15.00;99.90;;;;;;6072673;23;20535;-87
2023/08/23 00:25:09;;;;;;;13.70;4.85;;;14.90;99.90;;;;;;6096553;23;20174;-86
2023/08/23 00:27:36;;;;;;;13.80;5.43;;;14.70;99.90;;;;;;6073042;23;20551;-86
2023/08/23 00:30:05;;;;;;;12.70;5.10;;;14.80;99.90;;;;;;6072823;23;20178;-86
2023/08/23 00:32:32;;;;;;;14.85;5.53;;;14.90;99.90;;;;;;6122348;23;20163;-88
2023/08/23 00:35:00;;;;;;;8.65;4.85;;;14.90;99.90;;;;;;6096492;23;20273;-87
2023/08/23 00:37:28;;;;;;;12.23;5.25;;;14.90;99.90;;;;;;6122506;23;20160;-86
2023/08/23 00:39:55;;;;;;;16.73;6.28;;;14.90;99.90;;;;;;6096772;23;20176;-87
2023/08/23 00:42:22;;;;;;;11.20;6.03;;;14.90;99.90;;;;;;6123867;23;20163;-87
2023/08/23 00:44:50;;;;;;;11.32;4.82;;;14.80;99.90;;;;;;6096942;23;20172;-87
2023/08/23 00:47:18;;;;;;;11.20;4.93;;;14.80;99.90;;;;;;6122714;23;20250;-86
2023/08/23 00:49:46;;;;;;;14.18;5.32;;;14.90;99.90;;;;;;6096427;23;20175;-88
2023/08/23 00:52:16;;;;;;;15.43;5.40;;;14.80;99.90;;;;;;6122421;23;20170;-86
2023/08/23 00:54:47;;;;;;;10.95;5.07;;;15.00;99.90;;;;;;6096432;23;20195;-87
2023/08/23 00:57:15;;;;;;;14.40;4.63;;;15.10;99.90;;;;;;6095770;23;20257;-87
2023/08/23 00:59:44;;;;;;;16.58;6.35;;;15.10;99.90;;;;;;6122954;23;20238;-86
2023/08/23 01:02:12;;;;;;;13.45;5.65;;;15.10;99.90;;;;;;6122357;23;20214;-87
2023/08/23 01:04:39;;;;;;;16.05;6.07;;;15.00;99.90;;;;;;6072343;23;20181;-85
2023/08/23 01:07:12;;;;;;;12.40;5.43;;;15.10;99.90;;;;;;6096735;23;20242;-87
2023/08/23 01:09:46;;;;;;;16.98;6.20;;;15.10;99.90;;;;;;6122407;23;20262;-88
2023/08/23 01:12:29;;;;;;;16.50;5.78;;;15.00;99.90;;;;;;6096104;23;20587;-86
2023/08/23 01:15:05;;;;;;;16.88;6.38;;;15.00;99.90;;;;;;6097089;23;20729;-84
2023/08/23 01:17:34;;;;;;;16.13;6.60;;;14.90;99.90;;;;;;6072734;23;20173;-85
2023/08/23 01:20:02;;;;;;;15.93;6.70;;;14.80;99.90;;;;;;6122076;23;20167;-85
2023/08/23 01:22:35;;;;;;;15.30;6.55;;;14.90;99.90;;;;;;6121969;23;20230;-85
2023/08/23 01:25:03;;;;;;;12.60;6.05;;;14.80;99.90;;;;;;6122083;23;20162;-85
2023/08/23 01:27:33;;;;;;;12.52;6.40;;;14.90;99.90;;;;;;6096439;23;20169;-86
2023/08/23 01:30:16;;;;;;;13.88;6.60;;;15.00;99.90;;;;;;6096353;23;20243;-87
2023/08/23 01:33:09;;;;;;;16.75;7.65;;;15.10;99.90;;;;;;6095885;23;20171;-86
2023/08/23 01:35:54;;;;;;;13.50;6.35;;;14.90;99.90;;;;;;6096540;23;20523;-87
2023/08/23 01:38:23;;;;;;;14.30;5.72;;;15.10;99.90;;;;;;6122526;23;20602;-85
2023/08/23 01:40:52;;;;;;;16.25;6.22;;;15.10;99.90;;;;;;6069725;23;20171;-87
2023/08/23 01:43:19;;;;;;;9.15;5.28;;;14.80;99.90;;;;;;6095422;23;20254;-87
2023/08/23 01:45:47;;;;;;;19.42;7.90;;;15.00;99.90;;;;;;6095740;23;20492;-84
2023/08/23 01:48:15;;;;;;;18.92;7.78;;;14.90;99.90;;;;;;6072479;23;20194;-85
2023/08/23 01:50:42;;;;;;;12.25;5.65;;;14.80;99.90;;;;;;6095816;23;20175;-84
2023/08/23 01:53:10;;;;;;;13.23;6.13;;;14.90;99.90;;;;;;6121870;23;20232;-87
2023/08/23 01:55:37;;;;;;;12.38;6.22;;;14.90;99.90;;;;;;6121844;23;20211;-86
2023/08/23 01:58:06;;;;;;;17.58;7.43;;;15.00;99.90;;;;;;6096654;23;20226;-86
2023/08/23 02:00:34;;;;;;;17.98;7.60;;;14.90;99.90;;;;;;6096782;23;20894;-85
2023/08/23 02:03:02;;;;;;;17.33;8.00;;;14.90;99.90;;;;;;6095900;23;20180;-85
2023/08/23 02:05:30;;;;;;;14.75;7.57;;;14.90;99.90;;;;;;6121758;23;20163;-86
2023/08/23 02:07:59;;;;;;;14.80;7.80;;;14.80;99.90;;;;;;6095765;23;20178;-85
2023/08/23 02:10:26;;;;;;;18.92;7.00;;;14.70;99.90;;;;;;6095407;23;20698;-84
2023/08/23 02:12:54;;;;;;;16.13;7.70;;;14.90;99.90;;;;;;6122142;23;20163;-85
2023/08/23 02:15:22;;;;;;;15.63;8.05;;;14.90;99.90;;;;;;6095857;23;20199;-86
2023/08/23 02:17:52;;;;;;;15.93;8.82;;;14.90;99.90;;;;;;6121686;23;20155;-85
2023/08/23 02:20:20;;;;;;;16.52;7.68;;;14.80;99.90;;;;;;6096812;23;20586;-84
2023/08/23 02:22:47;;;;;;;17.10;7.38;;;14.80;99.90;;;;;;6097328;23;20491;-86
2023/08/23 02:25:15;;;;;;;18.77;8.02;;;14.80;99.90;;;;;;6096951;23;20568;-84
2023/08/23 02:27:43;;;;;;;18.92;8.88;;;14.90;99.90;;;;;;6095655;23;20167;-85
2023/08/23 02:30:12;;;;;;;12.65;6.72;;;14.90;99.90;;;;;;6122031;23;20167;-85
2023/08/23 02:32:41;;;;;;;13.43;6.97;;;14.90;99.90;;;;;;6095686;23;20171;-85
2023/08/23 02:35:08;;;;;;;16.50;7.32;;;14.90;99.90;;;;;;6096129;23;20187;-86
2023/08/23 02:37:36;;;;;;;15.80;7.22;;;15.00;99.90;;;;;;6096030;23;20552;-86
2023/08/23 02:40:04;;;;;;;14.75;6.65;;;14.90;99.90;;;;;;6071887;23;20221;-86
2023/08/23 02:42:32;;;;;;;17.60;7.72;;;14.80;99.90;;;;;;6121826;23;20163;-85
2023/08/23 02:44:59;;;;;;;11.48;5.95;;;14.70;99.90;;;;;;6096563;23;20167;-86
2023/08/23 02:47:27;;;;;;;13.70;7.05;;;14.70;99.90;;;;;;6122620;23;20246;-87
2023/08/23 02:49:54;;;;;;;16.67;8.10;;;14.80;99.90;;;;;;6095950;23;20558;-85
2023/08/23 02:52:22;;;;;;;12.70;7.75;;;14.80;99.90;;;;;;6071924;23;20174;-86
2023/08/23 02:54:50;;;;;;;13.35;6.03;;;14.70;99.90;;;;;;6096140;23;20189;-86
2023/08/23 02:57:18;;;;;;;10.90;6.00;;;14.70;99.90;;;;;;6096040;23;20191;-87
2023/08/23 02:59:46;;;;;;;15.18;6.20;;;14.80;99.90;;;;;;6095636;23;20198;-86
2023/08/23 03:02:14;;;;;;;14.88;7.43;;;14.90;99.90;;;;;;6072399;23;20275;-86
2023/08/23 03:04:41;;;;;;;13.10;6.28;;;14.90;99.90;;;;;;6121695;23;20656;-87
2023/08/23 03:07:09;;;;;;;10.50;6.10;;;14.90;99.90;;;;;;6121768;23;20171;-87
2023/08/23 03:09:36;;;;;;;13.15;6.47;;;14.90;99.90;;;;;;6073114;23;20167;-86
2023/08/23 03:12:04;;;;;;;11.18;5.25;;;14.80;99.90;;;;;;6121983;23;20167;-87
2023/08/23 03:14:31;;;;;;;16.70;6.72;;;14.80;99.90;;;;;;6120921;23;20194;-86
2023/08/23 03:16:59;;;;;;;11.90;5.93;;;14.70;99.90;;;;;;6121599;23;20268;-85
2023/08/23 03:19:26;;;;;;;12.70;6.05;;;14.80;99.90;;;;;;6095450;23;20172;-85
2023/08/23 03:21:54;;;;;;;9.90;6.15;;;14.80;99.90;;;;;;6073222;23;20201;-86
2023/08/23 03:24:21;;;;;;;11.77;5.82;;;14.80;99.90;;;;;;6097457;23;20783;-87
2023/08/23 03:26:49;;;;;;;13.35;5.28;;;14.80;99.90;;;;;;6096910;23;20176;-87
2023/08/23 03:29:17;;;;;;;14.45;5.97;;;14.80;99.90;;;;;;6097561;23;20274;-88
2023/08/23 03:31:44;;;;;;;14.35;6.35;;;14.70;99.90;;;;;;6097231;23;20194;-86
2023/08/23 03:34:16;;;;;;;10.40;6.18;;;14.60;99.90;;;;;;6097495;23;20163;-87
2023/08/23 03:36:44;;;;;;;10.75;6.30;;;14.60;99.90;;;;;;6097954;23;20170;-88
2023/08/23 03:39:11;;;;;;;15.20;6.55;;;14.50;99.90;;;;;;6123890;23;20214;-86
2023/08/23 03:41:39;;;;;;;18.33;7.35;;;14.50;99.90;;;;;;6123478;23;20167;-87
2023/08/23 03:44:06;;;;;;;14.10;6.45;;;14.60;99.90;;;;;;6123257;23;20618;-87
2023/08/23 03:46:34;;;;;;;13.15;6.10;;;14.60;99.90;;;;;;6096937;23;20175;-86
2023/08/23 03:49:02;;;;;;;15.07;6.90;;;14.50;99.90;;;;;;6123116;23;20191;-87
2023/08/23 03:51:29;;;;;;;20.05;6.88;;;14.40;99.90;;;;;;6074806;23;20180;-86
2023/08/23 03:53:57;;;;;;;13.98;6.05;;;14.40;99.90;;;;;;6097818;23;20175;-86
2023/08/23 03:56:24;;;;;;;12.10;5.25;;;14.50;99.90;;;;;;6073369;23;20587;-87
2023/08/23 03:58:53;;;;;;;16.45;6.35;;;14.60;99.90;;;;;;6097218;23;20591;-85
2023/08/23 04:01:21;;;;;;;12.95;6.00;;;14.60;99.90;;;;;;6073479;23;20199;-86
2023/08/23 04:03:48;;;;;;;11.10;5.40;;;14.50;99.90;;;;;;6122619;23;20196;-86
2023/08/23 04:06:16;;;;;;;13.25;6.18;;;14.50;99.90;;;;;;6122427;23;20171;-85
2023/08/23 04:08:45;;;;;;;14.65;5.93;;;14.50;99.90;;;;;;6097144;23;20258;-85
2023/08/23 04:11:12;;;;;;;10.88;5.35;;;14.60;99.90;;;;;;6097286;23;20215;-84
2023/08/23 04:13:40;;;;;;;10.13;5.35;;;14.70;99.90;;;;;;6097559;23;20238;-86
2023/08/23 04:16:11;;;;;;;11.40;5.28;;;14.80;99.90;;;;;;6073325;23;20195;-87
2023/08/23 04:18:38;;;;;;;11.93;5.43;;;14.70;99.90;;;;;;6096387;23;20167;-85
2023/08/23 04:21:06;;;;;;;16.17;5.18;;;14.60;99.90;;;;;;6095974;23;20168;-86
2023/08/23 04:23:36;;;;;;;13.02;5.93;;;14.60;99.90;;;;;;6072965;23;20172;-84
2023/08/23 04:26:04;;;;;;;13.80;5.78;;;14.60;99.90;;;;;;6071908;23;20563;-85
2023/08/23 04:28:32;;;;;;;14.23;5.70;;;14.60;99.90;;;;;;6073153;23;20178;-86
2023/08/23 04:31:01;;;;;;;11.93;5.20;;;14.50;99.90;;;;;;6096542;23;20559;-86
2023/08/23 04:33:35;;;;;;;11.95;5.53;;;14.60;99.90;;;;;;6095998;23;20171;-85
2023/08/23 04:36:04;;;;;;;13.00;6.07;;;14.50;99.90;;;;;;6122078;23;20523;-84
2023/08/23 04:38:31;;;;;;;11.27;5.10;;;14.60;99.90;;;;;;6096277;23;20167;-86
2023/08/23 04:41:01;;;;;;;11.85;5.70;;;14.70;99.90;;;;;;6096300;23;20715;-86
2023/08/23 04:43:30;;;;;;;15.20;5.05;;;14.60;99.90;;;;;;6072923;23;20235;-86
2023/08/23 04:46:01;;;;;;;11.25;5.57;;;14.60;99.90;;;;;;6095525;23;20567;-85
2023/08/23 04:48:29;;;;;;;11.82;5.07;;;14.80;99.90;;;;;;6097073;23;20902;-84
2023/08/23 04:50:57;;;;;;;11.30;5.63;;;14.70;99.90;;;;;;6072252;23;20202;-86
2023/08/23 04:53:26;;;;;;;11.98;5.20;;;14.70;99.90;;;;;;6094048;23;20696;-86
2023/08/23 04:55:58;;;;;;;11.07;5.30;;;14.70;99.90;;;;;;6071992;23;20187;-84
2023/08/23 04:58:32;;;;;;;8.70;4.22;;;14.70;99.90;;;;;;6122458;23;20197;-85
2023/08/23 05:01:04;;;;;;;9.90;5.22;;;14.80;99.90;;;;;;6123121;23;20226;-86
2023/08/23 05:03:35;;;;;;;12.05;5.20;;;14.70;99.90;;;;;;6073690;23;20222;-85
2023/08/23 05:06:04;;;;;;;11.68;5.55;;;14.70;99.90;;;;;;6072543;23;20171;-85
2023/08/23 05:08:35;;;;;;;13.73;5.78;;;14.70;99.90;;;;;;6095163;23;20171;-86
2023/08/23 05:11:09;;;;;;;7.82;4.97;;;14.60;99.90;;;;;;6095970;23;20170;-87
2023/08/23 05:13:38;;;;;;;12.45;5.18;;;14.70;99.90;;;;;;6097077;23;20158;-82
2023/08/23 05:16:06;;;;;;;14.98;5.65;;;14.80;99.90;;;;;;6096540;23;20191;-85
2023/08/23 05:18:34;;;;;;;9.60;5.10;;;14.80;99.90;;;;;;6096849;23;20166;-87
2023/08/23 05:21:03;;;;;;;11.02;5.57;;;14.80;99.90;;;;;;6096233;23;20230;-86
2023/08/23 05:23:30;;;;;;;10.82;4.80;;;14.70;99.90;;;;;;6095806;23;20530;-85
2023/08/23 05:25:59;;;;;;;10.30;5.05;;;14.60;99.90;;;;;;6095979;23;20234;-87
2023/08/23 05:28:28;;;;;;;8.10;5.13;;;14.60;99.90;;;;;;6070761;23;20180;-87
2023/08/23 05:30:56;;;;;;;8.00;5.00;;;14.70;99.90;;;;;;6070859;23;20186;-87
2023/08/23 05:33:27;;;;;;;14.77;5.50;;;14.80;99.90;;;;;;6095118;23;20205;-84
2023/08/23 05:35:56;;;;;;;9.27;4.40;;;14.80;99.90;;;;;;6072720;23;20195;-86
2023/08/23 05:38:24;;;;;;;10.88;5.20;;;14.80;99.90;;;;;;6096327;23;20195;-85
2023/08/23 05:40:56;;;;;;;8.20;4.38;;;14.90;99.90;;;;;;6095466;23;20167;-86
2023/08/23 05:43:24;;;;;;;11.65;4.32;;;14.90;99.90;;;;;;6096242;23;20163;-87
2023/08/23 05:45:54;;;;;;;8.48;4.45;;;14.90;99.90;;;;;;6095871;23;20274;-86
2023/08/23 05:48:25;;;;;;;13.15;5.15;;;15.00;99.90;;;;;;6072825;23;20163;-85
2023/08/23 05:50:55;;;;;;;9.75;4.75;;;15.00;99.90;;;;;;6094922;23;20171;-87
2023/08/23 05:53:39;;;;;;;12.02;4.88;;;15.00;99.90;;;;;;6095048;23;20244;-85
2023/08/23 05:56:08;;;;;;;20.13;5.30;;;15.00;99.90;;;;;;6096639;23;20234;-87
2023/08/23 05:58:39;;;;;;;11.23;4.70;;;15.00;99.90;;;;;;6067881;23;20500;-86
2023/08/23 06:01:07;;;;;;;8.43;4.57;;;15.00;99.90;;;;;;6092564;23;20171;-85
2023/08/23 06:03:36;;;;;;;10.40;4.72;;;15.00;99.90;;;;;;6091698;23;20768;-85
2023/08/23 06:06:07;;;;;;;13.02;4.43;;;15.10;99.90;;;;;;6091422;23;20152;-84
2023/08/23 06:08:36;;;;;;;11.50;5.10;;;15.10;99.90;;;;;;6089285;23;20168;-84
2023/08/23 06:11:10;;;;;;;8.63;4.47;;;15.10;99.90;;;;;;6088900;23;20154;-87
2023/08/23 06:13:42;;;;;;;8.55;4.15;;;15.20;99.90;;;;;;6088867;23;20171;-86
2023/08/23 06:16:12;;;;;;;9.68;3.95;;;15.20;99.90;;;;;;6088324;23;20183;-87
2023/08/23 06:18:41;;;;;;;5.78;3.85;;;15.20;99.90;;;;;;6089538;23;20233;-86
2023/08/23 06:21:11;;;;;;;10.93;4.85;;;15.30;99.90;;;;;;6091335;23;20168;-86
2023/08/23 06:23:43;;;;;;;11.57;3.63;;;15.30;99.90;;;;;;6090830;23;20545;-85
2023/08/23 06:26:13;;;;;;;7.63;4.25;;;15.40;99.90;;;;;;6089756;23;20181;-87
2023/08/23 06:28:41;;;;;;;6.28;4.60;;;15.40;99.90;;;;;;6091849;23;20198;-88
2023/08/23 06:31:18;;;;;;;11.57;4.50;;;15.40;99.90;;;;;;6092499;23;20164;-86
2023/08/23 06:33:46;;;;;;;12.98;4.43;;;15.40;99.90;;;;;;6091971;23;20186;-87
2023/08/23 06:36:13;;;;;;;7.30;4.00;;;15.40;99.90;;;;;;6091315;23;20194;-87
2023/08/23 06:38:46;;;;;;;7.95;4.13;;;15.40;99.90;;;;;;6092275;23;20164;-88
2023/08/23 06:41:14;;;;;;;9.77;3.88;;;15.50;99.90;;;;;;6090672;23;20592;-87
2023/08/23 06:43:42;;;;;;;6.57;3.80;;;15.50;99.90;;;;;;6091214;23;20664;-86
2023/08/23 06:46:09;;;;;;;8.13;3.65;;;15.50;99.90;;;;;;6065788;23;20702;-86
2023/08/23 06:48:37;;;;;;;10.57;4.05;;;15.50;99.90;;;;;;6091089;23;20611;-89
2023/08/23 06:51:04;;;;;;;9.77;4.07;;;15.60;99.90;;;;;;6092000;23;20231;-85
2023/08/23 06:53:33;;;;;;;10.32;4.25;;;15.80;99.90;;;;;;6092258;23;20171;-87
2023/08/23 06:56:03;;;;;;;10.05;4.40;;;15.70;99.90;;;;;;6089458;23;20199;-84
2023/08/23 06:58:30;;;;;;;11.10;4.15;;;15.70;99.90;;;;;;6069175;23;20207;-86
2023/08/23 07:00:58;;;;;;;6.57;4.13;;;15.70;99.90;;;;;;6093477;23;20268;-86
2023/08/23 07:03:27;;;;;;;12.95;4.75;;;15.70;99.90;;;;;;6093770;23;20172;-88
2023/08/23 07:05:55;;;;;;;9.85;4.38;;;15.70;99.90;;;;;;6091999;23;20179;-87
2023/08/23 07:08:22;;;;;;;8.50;3.97;;;15.70;99.90;;;;;;6092188;23;20251;-85
2023/08/23 07:10:50;;;;;;;8.43;4.40;;;15.70;99.90;;;;;;6092561;23;20258;-86
2023/08/23 07:13:17;;;;;;;8.77;4.30;;;15.80;99.90;;;;;;6092871;23;20218;-87
2023/08/23 07:15:45;;;;;;;9.07;4.10;;;15.80;99.90;;;;;;6094730;23;20184;-86
2023/08/23 07:18:13;;;;;;;6.75;3.85;;;15.80;99.90;;;;;;6069452;23;20255;-88
2023/08/23 07:20:40;;;;;;;7.75;3.72;;;15.80;99.90;;;;;;6095038;23;20184;-86
2023/08/23 07:23:07;;;;;;;9.68;4.40;;;15.80;99.90;;;;;;6068945;23;20178;-87
2023/08/23 07:25:35;;;;;;;8.45;4.68;;;15.80;99.90;;;;;;6068949;23;20167;-88
2023/08/23 07:28:03;;;;;;;10.57;4.50;;;15.80;99.90;;;;;;6094353;23;20164;-89
2023/08/23 07:30:30;;;;;;;10.25;4.32;;;15.80;99.90;;;;;;6092736;23;20513;-87
2023/08/23 07:32:58;;;;;;;15.63;4.72;;;15.90;99.90;;;;;;6093268;23;20368;-87
2023/08/23 07:35:26;;;;;;;12.00;4.50;;;15.90;99.90;;;;;;6094372;23;20164;-87
2023/08/23 07:37:53;;;;;;;10.35;3.95;;;15.90;99.90;;;;;;6094518;23;20166;-86
2023/08/23 07:40:21;;;;;;;7.60;4.25;;;16.00;99.90;;;;;;6069707;23;20171;-88
2023/08/23 07:42:48;;;;;;;10.88;5.07;;;16.10;99.90;;;;;;6094685;23;20164;-87
2023/08/23 07:45:16;;;;;;;7.78;3.88;;;16.10;99.90;;;;;;6094379;23;20466;-87
2023/08/23 07:47:43;;;;;;;9.35;3.90;;;16.10;99.90;;;;;;6092909;23;20688;-88
2023/08/23 07:50:11;;;;;;;8.30;4.40;;;16.10;99.90;;;;;;6094044;23;20172;-87
2023/08/23 07:52:38;;;;;;;8.18;3.95;;;16.10;99.90;;;;;;6094315;23;20168;-87
2023/08/23 07:55:07;;;;;;;11.00;4.05;;;16.10;99.90;;;;;;6094331;23;20192;-86
2023/08/23 07:57:34;;;;;;;9.63;3.88;;;16.20;99.90;;;;;;6110667;23;20279;-87
2023/08/23 08:00:02;;;;;;;12.32;4.03;;;16.20;99.90;;;;;;6124391;23;20164;-88
2023/08/23 08:02:32;;;;;;;10.90;4.15;;;16.20;99.90;;;;;;6124655;23;20159;-88
2023/08/23 08:04:59;;;;;;;7.00;4.03;;;16.30;99.90;;;;;;6124047;23;20187;-87
2023/08/23 08:07:29;;;;;;;9.57;3.83;;;16.40;99.90;;;;;;6123361;23;20179;-88
2023/08/23 08:10:16;;;;;;;9.75;3.97;;;16.40;99.90;;;;;;6124245;23;20155;-87
2023/08/23 08:12:44;;;;;;;8.20;3.78;;;16.60;99.90;;;;;;6124040;23;20625;-86
2023/08/23 08:15:12;;;;;;;8.52;4.13;;;16.70;99.90;;;;;;6124477;23;20989;-88
2023/08/23 08:17:39;;;;;;;7.93;3.92;;;16.80;99.90;;;;;;6097291;23;20275;-89
2023/08/23 08:20:10;;;;;;;9.77;3.58;;;16.70;99.90;;;;;;6123344;23;20254;-87
2023/08/23 08:22:38;;;;;;;6.47;3.22;;;16.80;99.90;;;;;;6098627;23;20229;-86
2023/08/23 08:25:06;;;;;;;12.82;4.10;;;16.90;99.90;;;;;;6125193;23;20164;-88
2023/08/23 08:27:34;;;;;;;6.75;3.75;;;16.90;99.90;;;;;;6124193;23;20167;-86
2023/08/23 08:30:03;;;;;;;5.95;2.90;;;17.00;99.90;;;;;;6123096;23;20163;-89
2023/08/23 08:32:30;;;;;;;8.95;3.45;;;17.00;99.90;;;;;;6123121;23;20163;-87
2023/08/23 08:34:58;;;;;;;11.45;3.05;;;17.10;99.90;;;;;;6122995;23;20163;-87
2023/08/23 08:37:26;;;;;;;6.95;3.35;;;17.10;99.90;;;;;;6122490;23;20189;-87
2023/08/23 08:39:53;;;;;;;6.10;3.00;;;17.00;99.90;;;;;;6073078;23;20567;-88
2023/08/23 08:42:21;;;;;;;6.75;3.55;;;17.10;99.90;;;;;;6097446;23;20178;-87
2023/08/23 08:44:49;;;;;;;4.95;2.95;;;17.20;99.90;;;;;;6123697;23;20215;-86
2023/08/23 08:47:20;;;;;;;10.60;3.15;;;17.30;99.90;;;;;;6097165;23;20258;-87
2023/08/23 08:49:48;;;;;;;8.82;3.05;;;17.40;99.90;;;;;;6123315;23;20156;-86
2023/08/23 08:52:19;;;;;;;7.03;3.50;;;17.40;99.90;;;;;;6122870;23;20168;-87
2023/08/23 08:54:48;;;;;;;8.98;3.55;;;17.40;99.90;;;;;;6122960;23;20162;-86
2023/08/23 08:57:15;;;;;;;6.03;2.75;;;17.50;99.90;;;;;;6122499;23;20195;-88
2023/08/23 08:59:45;;;;;;;6.00;3.25;;;17.60;99.90;;;;;;6097435;23;20222;-85
2023/08/23 09:02:17;;;;;;;6.03;2.85;;;17.40;99.90;;;;;;6123597;23;20494;-89
2023/08/23 09:04:46;;;;;;;7.63;2.95;;;17.40;99.90;;;;;;6123048;23;20179;-88
2023/08/23 09:07:15;;;;;;;4.88;2.92;;;17.30;99.90;;;;;;6122585;23;20178;-88
2023/08/23 09:09:45;;;;;;;6.38;3.08;;;17.30;99.90;;;;;;6096675;23;20224;-87
2023/08/23 09:12:13;;;;;;;10.88;3.22;;;17.40;99.90;;;;;;6122607;23;20156;-86
2023/08/23 09:14:40;;;;;;;5.53;3.03;;;17.50;99.90;;;;;;6122750;23;20167;-87
2023/08/23 09:17:10;;;;;;;5.82;2.78;;;17.60;99.90;;;;;;6122569;23;20183;-87
2023/08/23 09:19:40;;;;;;;16.42;3.28;;;17.60;99.90;;;;;;6122568;23;20166;-87
2023/08/23 09:22:07;;;;;;;10.18;2.60;;;17.70;99.90;;;;;;6095736;23;20139;-88
2023/08/23 09:24:35;;;;;;;6.60;2.63;;;17.70;99.90;;;;;;6120837;23;20170;-88
2023/08/23 09:27:05;;;;;;;5.22;2.75;;;17.70;99.90;;;;;;6095705;23;20171;-86
2023/08/23 09:29:33;;;;;;;6.13;2.28;;;17.70;99.90;;;;;;6121248;23;20173;-86
2023/08/23 09:32:05;;;;;;;7.32;2.65;;;17.80;99.90;;;;;;6121229;23;20614;-84
2023/08/23 09:34:32;;;;;;;8.20;2.70;;;17.70;99.90;;;;;;6120310;23;20183;-87
2023/08/23 09:37:08;;;;;;;6.53;2.67;;;17.70;99.90;;;;;;6120499;23;20186;-85
2023/08/23 09:39:37;;;;;;;11.65;2.35;;;17.80;99.90;;;;;;6122762;23;20158;-86
2023/08/23 09:42:13;;;;;;;9.73;2.35;;;17.80;99.90;;;;;;6097057;23;20170;-87
2023/08/23 09:44:43;;;;;;;5.80;2.33;;;17.70;99.90;;;;;;6072148;23;20221;-85
2023/08/23 09:47:21;;;;;;;7.38;2.35;;;17.70;99.90;;;;;;6121527;23;20175;-87
2023/08/23 09:49:51;;;;;;;10.18;2.90;;;17.50;99.90;;;;;;6100048;23;20638;-81
2023/08/23 09:52:22;;;;;;;6.00;2.80;;;17.40;99.90;;;;;;6107795;23;20185;-82
2023/08/23 09:54:54;;;;;;;6.00;2.92;;;17.40;99.90;;;;;;6082185;23;20243;-83
2023/08/23 09:57:41;;;;;;;7.13;2.90;;;17.30;99.90;;;;;;6130004;23;20190;-86
2023/08/23 10:00:28;;;;;;;5.35;2.55;;;17.40;99.90;;;;;;6132987;23;20166;-82
2023/08/23 10:03:02;;;;;;;8.75;3.53;;;17.40;99.90;;;;;;6083436;23;20242;-86
2023/08/23 10:05:37;;;;;;;7.65;2.90;;;17.40;99.90;;;;;;6098542;23;20187;-83
2023/08/23 10:08:23;;;;;;;5.72;2.90;;;17.40;99.90;;;;;;6110981;23;20548;-81
2023/08/23 10:10:57;;;;;;;7.85;2.92;;;17.30;99.90;;;;;;6135515;23;20155;-83
2023/08/23 10:13:26;;;;;;;4.88;2.70;;;17.40;99.90;;;;;;6109294;23;20163;-81
2023/08/23 10:15:55;;;;;;;6.65;2.70;;;17.30;99.90;;;;;;6134766;23;20187;-83
2023/08/23 10:18:25;;;;;;;4.85;3.00;;;17.40;99.90;;;;;;6109750;23;20213;-82
2023/08/23 10:20:54;;;;;;;4.80;2.97;;;17.40;99.90;;;;;;6106181;23;20636;-85
2023/08/23 10:23:22;;;;;;;7.05;3.17;;;17.40;99.90;;;;;;6104346;23;20673;-85
2023/08/23 10:25:50;;;;;;;6.75;2.80;;;17.40;99.90;;;;;;6133027;23;20166;-83
2023/08/23 10:28:18;;;;;;;7.63;2.92;;;17.40;99.90;;;;;;6133161;23;20227;-83
2023/08/23 10:30:49;;;;;;;7.00;2.80;;;17.40;99.90;;;;;;6135611;23;20173;-81
2023/08/23 10:33:18;;;;;;;6.13;3.10;;;17.20;99.90;;;;;;6086648;23;20164;-81
2023/08/23 10:35:50;;;;;;;5.90;2.70;;;17.20;99.90;;;;;;6111591;23;20228;-82
2023/08/23 10:38:23;;;;;;;4.80;2.28;;;17.10;99.90;;;;;;6100016;23;20194;-84
2023/08/23 10:40:50;;;;;;;5.07;2.42;;;16.60;99.90;;;;;;6129992;23;20170;-86
2023/08/23 10:43:32;;;;;;;5.07;1.70;;;16.60;99.90;;;;;;6128292;23;20190;-87
2023/08/23 10:46:08;;;;;;;5.97;2.22;;;16.50;99.90;;;;;;6102141;23;20187;-85
2023/08/23 10:48:39;;;;;;;4.35;2.25;;;16.60;99.90;;;;;;6103563;23;20690;-82
2023/08/23 10:51:10;;;;;;;4.85;2.00;;;16.70;99.90;;;;;;6112956;23;20147;-82
2023/08/23 10:53:39;;;;;;;9.68;2.58;;;16.70;99.90;;;;;;6110387;23;20186;-87
2023/08/23 10:56:09;;;;;;;4.05;2.20;;;16.70;99.90;;;;;;6110169;23;20171;-85
2023/08/23 10:58:37;;;;;;;6.35;2.03;;;16.70;99.90;;;;;;6137078;23;20187;-81
2023/08/23 11:01:08;;;;;;;5.68;2.15;;;16.70;99.90;;;;;;6111524;23;20160;-88
2023/08/23 11:03:37;;;;;;;5.28;2.30;;;16.70;99.90;;;;;;6133897;23;20160;-81
2023/08/23 11:06:08;;;;;;;3.22;1.92;;;16.80;99.90;;;;;;6132315;23;20397;-86
2023/08/23 11:08:38;;;;;;;4.55;2.63;;;16.80;99.90;;;;;;6125865;23;20179;-81
2023/08/23 11:11:07;;;;;;;4.05;2.47;;;16.70;99.90;;;;;;6107685;23;20169;-82
2023/08/23 11:13:37;;;;;;;5.25;2.20;;;16.70;99.90;;;;;;6129083;23;20171;-86
2023/08/23 11:16:08;;;;;;;5.90;2.50;;;16.60;99.90;;;;;;6098464;23;20218;-87
2023/08/23 11:18:39;;;;;;;5.22;2.60;;;16.60;99.90;;;;;;6123216;23;20238;-85
2023/08/23 11:21:39;;;;;;;7.50;2.38;;;16.70;99.90;;;;;;6124219;23;20208;-87
2023/08/23 11:24:12;;;;;;;6.55;2.20;;;16.60;99.90;;;;;;6120821;23;20174;-87
2023/08/23 11:26:46;;;;;;;4.25;2.05;;;16.60;99.90;;;;;;6123512;23;20618;-85
2023/08/23 11:29:16;;;;;;;2.95;2.15;;;16.60;99.90;;;;;;6124752;23;20682;-89
2023/08/23 11:31:53;;;;;;;5.18;1.92;;;16.70;99.90;;;;;;6126295;23;20162;-86
2023/08/23 11:34:23;;;;;;;3.75;2.20;;;16.70;99.90;;;;;;6101224;23;20230;-86
2023/08/23 11:36:52;;;;;;;4.72;2.05;;;16.80;99.90;;;;;;6099069;23;20198;-85
2023/08/23 11:39:19;;;;;;;3.67;2.15;;;16.80;99.90;;;;;;6076577;23;20199;-85
2023/08/23 11:41:48;;;;;;;5.90;1.98;;;16.90;99.90;;;;;;6128651;23;20161;-85
2023/08/23 11:44:18;;;;;;;5.63;2.17;;;17.00;99.90;;;;;;6127531;23;20148;-86
2023/08/23 11:46:49;;;;;;;3.97;2.10;;;17.10;99.90;;;;;;6124331;23;20167;-86
2023/08/23 11:49:18;;;;;;;3.58;2.33;;;17.30;99.90;;;;;;6102229;23;20187;-85
2023/08/23 11:51:50;;;;;;;8.10;2.20;;;17.80;99.90;;;;;;6131586;23;20167;-84
2023/08/23 11:54:18;;;;;;;6.43;2.08;;;17.90;99.90;;;;;;6133116;23;20151;-82
2023/08/23 11:56:46;;;;;;;3.97;2.10;;;18.00;99.90;;;;;;6105763;23;20618;-84
2023/08/23 11:59:14;;;;;;;7.25;2.20;;;17.90;99.90;;;;;;6128602;23;20159;-84
2023/08/23 12:01:42;;;;;;;4.32;1.98;;;17.70;99.90;;;;;;6100814;23;20167;-83
2023/08/23 12:04:12;;;;;;;6.18;2.25;;;17.70;99.90;;;;;;6128237;23;20494;-85
2023/08/23 12:06:41;;;;;;;4.35;2.13;;;17.70;99.90;;;;;;6106019;23;20174;-83
2023/08/23 12:09:12;;;;;;;3.78;2.20;;;17.90;99.90;;;;;;6104966;23;20160;-84
2023/08/23 12:11:44;;;;;;;4.65;2.00;;;18.30;99.90;;;;;;6129635;23;20588;-86
2023/08/23 12:14:16;;;;;;;5.97;2.40;;;18.40;99.90;;;;;;6079722;23;20159;-86
2023/08/23 12:16:44;;;;;;;10.40;2.40;;;18.70;99.90;;;;;;6077686;23;20163;-82
2023/08/23 12:19:27;;;;;;;5.53;2.13;;;18.70;99.90;;;;;;6128573;23;20194;-87
2023/08/23 12:22:18;;;;;;;4.00;2.20;;;18.60;99.90;;;;;;6119806;23;20572;-86
2023/08/23 12:25:06;;;;;;;4.70;1.92;;;18.40;99.90;;;;;;6093589;23;20459;-85
2023/08/23 12:28:03;;;;;;;6.20;2.10;;;18.30;99.90;;;;;;6122323;23;20517;-87
2023/08/23 12:30:44;;;;;;;4.03;2.15;;;18.30;99.90;;;;;;6094231;23;20280;-84
2023/08/23 12:33:13;;;;;;;4.25;2.20;;;18.20;99.90;;;;;;6091844;23;20583;-86
2023/08/23 12:35:42;;;;;;;7.03;2.20;;;18.10;99.90;;;;;;6119695;23;20255;-86
2023/08/23 12:38:12;;;;;;;4.50;1.80;;;18.10;99.90;;;;;;6093488;23;20194;-86
2023/08/23 12:40:43;;;;;;;5.10;2.28;;;18.00;99.90;;;;;;6092132;23;20685;-86
2023/08/23 12:43:13;;;;;;;7.65;2.53;;;18.00;99.90;;;;;;6120165;23;20434;-84
2023/08/23 12:45:41;;;;;;;6.22;2.45;;;18.00;99.90;;;;;;6127264;23;20222;-82
2023/08/23 12:48:09;;;;;;;5.43;1.92;;;17.90;99.90;;;;;;6100861;23;20169;-84
2023/08/23 12:50:40;;;;;;;6.00;2.40;;;17.90;99.90;;;;;;6077033;23;20238;-81
2023/08/23 12:53:12;;;;;;;2.28;1.80;;;17.90;99.90;;;;;;6080690;23;20155;-81